createdAt,value
2019-05-28T00:02:12.810Z,46.97
2019-05-28T00:04:42.263Z,37.07
2019-05-28T00:07:12.075Z,36.00
2019-05-28T00:09:43.692Z,34.47
2019-05-28T00:12:13.093Z,34.33
2019-05-28T00:14:44.433Z,37.57
2019-05-28T00:17:13.635Z,33.50
2019-05-28T00:19:43.674Z,34.17
2019-05-28T00:22:13.514Z,33.57
2019-05-28T00:24:45.504Z,35.27
2019-05-28T00:27:16.576Z,33.95
2019-05-28T00:29:48.096Z,48.07
2019-05-28T00:32:18.946Z,48.37
2019-05-28T00:34:48.545Z,38.77
2019-05-28T00:37:18.526Z,35.60
2019-05-28T00:39:48.896Z,38.53
2019-05-28T00:42:18.838Z,39.47
2019-05-28T00:44:48.279Z,37.07
2019-05-28T00:47:18.556Z,39.88
2019-05-28T00:49:49.746Z,41.73
2019-05-28T00:52:19.491Z,36.50
2019-05-28T00:54:52.219Z,39.00
2019-05-28T00:57:22.566Z,42.35
2019-05-28T00:59:57.014Z,41.40
2019-05-28T01:02:26.960Z,41.27
2019-05-28T01:04:56.390Z,43.47
2019-05-28T01:07:26.182Z,39.13
2019-05-28T01:09:56.052Z,40.83
2019-05-28T01:12:25.506Z,42.70
2019-05-28T01:14:55.235Z,43.20
2019-05-28T01:17:25.060Z,45.08
2019-05-28T01:19:56.565Z,33.63
2019-05-28T01:22:27.721Z,39.10
2019-05-28T01:24:58.199Z,38.13
2019-05-28T01:27:27.615Z,36.53
2019-05-28T01:30:00.414Z,37.17
2019-05-28T01:32:30.219Z,41.00
2019-05-28T01:34:59.696Z,38.27
2019-05-28T01:37:29.540Z,51.00
2019-05-28T01:39:59.331Z,60.40
2019-05-28T01:42:28.802Z,58.97
2019-05-28T01:44:58.253Z,62.33
2019-05-28T01:47:27.801Z,50.12
2019-05-28T01:49:57.244Z,53.17
2019-05-28T01:52:26.681Z,52.45
2019-05-28T01:54:56.472Z,37.57
2019-05-28T01:57:27.719Z,35.70
2019-05-28T01:59:57.829Z,30.90
2019-05-28T02:02:27.733Z,33.20
2019-05-28T02:04:57.430Z,33.50
2019-05-28T02:07:32.253Z,32.10
2019-05-28T02:10:01.701Z,34.07
2019-05-28T02:12:31.195Z,35.23
2019-05-28T02:15:00.916Z,33.60
2019-05-28T02:17:31.943Z,35.52
2019-05-28T02:20:02.752Z,34.40
2019-05-28T02:22:32.212Z,35.03
2019-05-28T02:25:02.082Z,38.60
2019-05-28T02:27:31.513Z,42.87
2019-05-28T02:30:01.029Z,40.43
2019-05-28T02:32:31.106Z,43.75
2019-05-28T02:35:00.601Z,39.43
2019-05-28T02:37:38.806Z,35.50
2019-05-28T02:40:13.081Z,36.58
2019-05-28T02:42:42.980Z,36.37
2019-05-28T02:45:14.203Z,35.30
2019-05-28T02:47:43.689Z,35.33
2019-05-28T02:50:14.448Z,33.55
2019-05-28T02:52:44.812Z,34.37
2019-05-28T02:55:14.880Z,31.82
2019-05-28T02:57:46.963Z,36.57
2019-05-28T03:00:20.470Z,37.38
2019-05-28T03:02:50.002Z,36.40
2019-05-28T03:05:19.744Z,33.18
2019-05-28T03:07:55.721Z,37.88
2019-05-28T03:10:59.887Z,38.63
2019-05-28T03:13:07.905Z,32.07
2019-05-28T03:15:43.383Z,32.17
2019-05-28T03:18:13.752Z,29.03
2019-05-28T03:20:50.616Z,31.87
2019-05-28T03:23:22.450Z,36.40
2019-05-28T03:25:52.560Z,36.28
2019-05-28T03:28:24.960Z,39.15
2019-05-28T03:30:54.397Z,31.60
2019-05-28T03:33:27.080Z,33.07
2019-05-28T03:35:59.133Z,30.73
2019-05-28T03:38:31.799Z,31.77
2019-05-28T03:41:02.268Z,31.40
2019-05-28T03:43:32.485Z,46.77
2019-05-28T03:46:03.384Z,33.17
2019-05-28T03:48:38.531Z,38.50
2019-05-28T03:51:08.360Z,32.27
2019-05-28T03:53:42.689Z,34.10
2019-05-28T03:56:13.391Z,31.00
2019-05-28T03:58:42.760Z,28.80
2019-05-28T04:01:12.700Z,30.50
2019-05-28T04:03:43.340Z,30.87
2019-05-28T04:06:13.842Z,36.50
2019-05-28T04:08:44.233Z,31.83
2019-05-28T04:11:14.157Z,39.27
2019-05-28T04:13:44.974Z,29.43
2019-05-28T04:16:17.464Z,30.23
2019-05-28T04:18:47.270Z,34.33
2019-05-28T04:21:18.204Z,39.73
2019-05-28T04:23:48.172Z,35.60
2019-05-28T04:26:24.576Z,32.93
2019-05-28T04:28:54.017Z,31.17
2019-05-28T04:31:24.095Z,29.70
2019-05-28T04:33:53.715Z,30.03
2019-05-28T04:36:23.140Z,38.33
2019-05-28T04:38:53.535Z,33.27
2019-05-28T04:41:23.156Z,34.03
2019-05-28T04:43:52.589Z,38.70
2019-05-28T04:46:27.466Z,33.45
2019-05-28T04:48:57.284Z,39.23
2019-05-28T04:51:27.761Z,34.10
2019-05-28T04:53:57.450Z,31.73
2019-05-28T04:56:28.885Z,33.20
2019-05-28T04:59:03.717Z,31.97
2019-05-28T05:01:32.005Z,37.67
2019-05-28T05:04:01.909Z,35.00
2019-05-28T05:06:32.628Z,40.60
2019-05-28T05:09:02.068Z,35.10
2019-05-28T05:11:31.642Z,38.53
2019-05-28T05:14:01.565Z,30.20
2019-05-28T05:16:31.009Z,28.90
2019-05-28T05:19:00.548Z,28.23
2019-05-28T05:21:31.130Z,27.37
2019-05-28T05:24:01.527Z,25.47
2019-05-28T05:26:31.910Z,25.80
2019-05-28T05:29:01.364Z,25.00
2019-05-28T05:31:30.912Z,29.45
2019-05-28T05:34:00.395Z,34.57
2019-05-28T05:36:29.853Z,26.07
2019-05-28T05:39:05.574Z,26.67
2019-05-28T05:41:36.521Z,24.75
2019-05-28T05:44:06.897Z,25.80
2019-05-28T05:46:39.475Z,25.50
2019-05-28T05:49:09.413Z,25.50
2019-05-28T05:51:48.092Z,28.90
2019-05-28T05:54:18.264Z,31.07
2019-05-28T05:56:50.321Z,29.77
2019-05-28T05:59:19.748Z,28.77
2019-05-28T06:01:49.197Z,34.10
2019-05-28T06:04:18.711Z,30.73
2019-05-28T06:06:48.176Z,28.63
2019-05-28T06:09:18.273Z,32.20
2019-05-28T06:11:53.589Z,32.17
2019-05-28T06:14:23.812Z,36.47
2019-05-28T06:16:53.286Z,37.00
2019-05-28T06:19:23.120Z,36.77
2019-05-28T06:21:52.552Z,30.70
2019-05-28T06:24:21.995Z,30.48
2019-05-28T06:26:52.212Z,33.93
2019-05-28T06:29:21.661Z,29.77
2019-05-28T06:31:51.294Z,28.10
2019-05-28T06:34:22.977Z,27.40
2019-05-28T06:36:53.892Z,32.50
2019-05-28T06:39:23.317Z,26.30
2019-05-28T06:41:53.192Z,24.37
2019-05-28T06:44:22.940Z,26.13
2019-05-28T06:46:54.384Z,26.87
2019-05-28T06:49:24.189Z,27.48
2019-05-28T06:51:53.625Z,27.60
2019-05-28T06:54:23.061Z,33.97
2019-05-28T06:56:54.148Z,24.37
2019-05-28T06:59:23.969Z,29.80
2019-05-28T07:01:55.297Z,23.60
2019-05-28T07:04:32.693Z,24.70
2019-05-28T07:06:59.126Z,20.47
2019-05-28T07:09:28.435Z,23.17
2019-05-28T07:12:01.355Z,24.63
2019-05-28T07:14:34.758Z,24.43
2019-05-28T07:17:04.917Z,22.47
2019-05-28T07:19:34.742Z,24.15
2019-05-28T07:22:04.192Z,27.98
2019-05-28T07:24:33.634Z,25.27
2019-05-28T07:27:04.196Z,27.17
2019-05-28T07:29:33.985Z,26.47
2019-05-28T07:32:03.500Z,22.13
2019-05-28T07:34:34.694Z,27.20
2019-05-28T07:37:08.507Z,25.50
2019-05-28T07:39:38.293Z,26.70
2019-05-28T07:42:08.256Z,25.57
2019-05-28T07:44:37.857Z,25.67
2019-05-28T07:47:12.549Z,30.00
2019-05-28T07:49:42.060Z,24.10
2019-05-28T07:52:11.562Z,21.50
2019-05-28T07:54:40.989Z,22.00
2019-05-28T07:57:14.551Z,22.07
2019-05-28T07:59:45.591Z,21.57
2019-05-28T08:02:16.260Z,21.77
2019-05-28T08:04:47.632Z,21.03
2019-05-28T08:07:18.270Z,22.10
2019-05-28T08:09:47.763Z,19.60
2019-05-28T08:12:19.964Z,20.83
2019-05-28T08:14:49.388Z,20.10
2019-05-28T08:17:19.783Z,21.50
2019-05-28T08:19:49.422Z,20.60
2019-05-28T08:22:19.460Z,20.80
2019-05-28T08:24:48.957Z,19.53
2019-05-28T08:27:19.344Z,18.17
2019-05-28T08:29:49.008Z,19.20
2019-05-28T08:32:18.571Z,19.20
2019-05-28T08:35:04.185Z,20.80
2019-05-28T08:37:20.469Z,17.10
2019-05-28T08:39:50.719Z,17.20
2019-05-28T08:42:21.576Z,17.63
2019-05-28T08:44:51.380Z,19.40
2019-05-28T08:47:21.704Z,17.90
2019-05-28T08:49:53.786Z,15.83
2019-05-28T08:52:25.548Z,15.60
2019-05-28T08:54:56.226Z,16.10
2019-05-28T08:57:25.721Z,16.97
2019-05-28T08:59:56.670Z,17.23
2019-05-28T09:02:28.289Z,20.72
2019-05-28T09:04:58.174Z,20.13
2019-05-28T09:07:31.790Z,18.70
2019-05-28T09:10:02.046Z,23.85
2019-05-28T09:12:34.074Z,22.67
2019-05-28T09:15:03.460Z,21.47
2019-05-28T09:17:32.906Z,22.93
2019-05-28T09:20:02.959Z,20.40
2019-05-28T09:22:32.394Z,23.83
2019-05-28T09:25:01.872Z,24.13
2019-05-28T09:27:32.581Z,26.37
2019-05-28T09:30:01.953Z,24.70
2019-05-28T09:32:32.425Z,25.60
2019-05-28T09:35:03.191Z,22.57
2019-05-28T09:37:33.061Z,22.60
2019-05-28T09:40:03.420Z,20.77
2019-05-28T09:42:33.202Z,22.15
2019-05-28T09:45:19.374Z,26.07
2019-05-28T09:47:33.854Z,22.03
2019-05-28T09:50:04.497Z,23.83
2019-05-28T09:52:52.991Z,23.47
2019-05-28T09:55:09.638Z,26.00
2019-05-28T09:57:47.266Z,24.23
2019-05-28T10:00:15.233Z,23.32
2019-05-28T10:02:45.352Z,22.90
2019-05-28T10:05:17.893Z,22.87
2019-05-28T10:07:47.737Z,24.13
2019-05-28T10:10:18.872Z,26.25
2019-05-28T10:12:52.615Z,24.10
2019-05-28T10:15:22.702Z,25.52
2019-05-28T10:17:57.062Z,36.90
2019-05-28T10:20:29.680Z,35.03
2019-05-28T10:23:01.841Z,38.48
2019-05-28T10:25:31.240Z,40.00
2019-05-28T10:28:02.395Z,25.87
2019-05-28T10:30:32.009Z,35.73
2019-05-28T10:33:01.465Z,29.70
2019-05-28T10:35:34.051Z,36.53
2019-05-28T10:38:04.126Z,29.73
2019-05-28T10:40:34.637Z,29.20
2019-05-28T10:43:07.559Z,32.27
2019-05-28T10:45:37.878Z,29.50
2019-05-28T10:48:07.986Z,32.53
2019-05-28T10:50:37.459Z,40.47
2019-05-28T10:53:07.727Z,35.30
2019-05-28T10:55:38.325Z,32.85
2019-05-28T10:58:08.402Z,31.67
2019-05-28T11:00:38.146Z,30.47
2019-05-28T11:03:09.587Z,36.47
2019-05-28T11:05:39.317Z,32.67
2019-05-28T11:08:10.573Z,32.93
2019-05-28T11:10:42.070Z,36.67
2019-05-28T11:13:13.566Z,37.07
2019-05-28T11:15:48.156Z,38.80
2019-05-28T11:18:19.030Z,36.10
2019-05-28T11:20:49.912Z,45.90
2019-05-28T11:23:21.364Z,38.17
2019-05-28T11:25:51.240Z,42.53
2019-05-28T11:28:22.204Z,44.50
2019-05-28T11:30:51.672Z,41.27
2019-05-28T11:33:21.890Z,38.40
2019-05-28T11:35:52.244Z,34.63
2019-05-28T11:38:21.873Z,40.37
2019-05-28T11:40:51.305Z,43.07
2019-05-28T11:43:21.921Z,41.60
2019-05-28T11:45:51.406Z,32.17
2019-05-28T11:48:21.210Z,35.97
2019-05-28T11:50:51.077Z,34.63
2019-05-28T11:53:21.514Z,32.40
2019-05-28T11:55:52.304Z,33.97
2019-05-28T11:58:23.600Z,34.20
2019-05-28T12:00:58.709Z,30.60
2019-05-28T12:03:28.488Z,27.67
2019-05-28T12:06:00.034Z,33.47
2019-05-28T12:08:31.240Z,27.20
2019-05-28T12:11:01.466Z,24.27
2019-05-28T12:13:32.079Z,24.27
2019-05-28T12:16:03.493Z,25.03
2019-05-28T12:18:33.525Z,24.47
2019-05-28T12:21:03.325Z,28.53
2019-05-28T12:23:33.560Z,24.80
2019-05-28T12:26:08.186Z,23.40
2019-05-28T12:28:38.712Z,23.00
2019-05-28T12:31:08.239Z,23.40
2019-05-28T12:33:40.130Z,24.07
2019-05-28T12:36:13.631Z,24.30
2019-05-28T12:38:43.020Z,21.70
2019-05-28T12:41:13.709Z,19.70
2019-05-28T12:43:50.496Z,24.30
2019-05-28T12:46:21.745Z,24.67
2019-05-28T12:48:53.105Z,20.75
2019-05-28T12:51:27.390Z,20.13
2019-05-28T12:53:59.224Z,17.00
2019-05-28T12:56:30.836Z,18.40
2019-05-28T12:59:00.910Z,18.43
2019-05-28T13:01:32.996Z,28.27
2019-05-28T13:04:07.006Z,18.60
2019-05-28T13:06:36.789Z,21.30
2019-05-28T13:09:08.417Z,24.50
2019-05-28T13:11:40.371Z,20.93
2019-05-28T13:14:11.843Z,19.40
2019-05-28T13:16:41.270Z,26.30
2019-05-28T13:19:10.849Z,23.23
2019-05-28T13:21:40.795Z,23.40
2019-05-28T13:24:10.286Z,21.20
2019-05-28T13:26:40.596Z,26.13
2019-05-28T13:29:12.217Z,20.10
2019-05-28T13:31:43.274Z,23.00
2019-05-28T13:34:13.253Z,21.60
2019-05-28T13:36:50.998Z,20.40
2019-05-28T13:39:20.850Z,23.23
2019-05-28T13:41:50.284Z,20.57
2019-05-28T13:44:20.414Z,16.13
2019-05-28T13:46:51.903Z,16.47
2019-05-28T13:49:21.419Z,15.48
2019-05-28T13:51:53.024Z,14.97
2019-05-28T13:54:25.565Z,19.20
2019-05-28T13:56:58.016Z,18.77
2019-05-28T13:59:32.272Z,35.73
2019-05-28T14:02:05.588Z,16.00
2019-05-28T14:04:35.262Z,19.93
2019-05-28T14:07:05.575Z,18.07
2019-05-28T14:09:40.213Z,21.85
2019-05-28T14:12:10.385Z,29.40
2019-05-28T14:14:46.338Z,20.73
2019-05-28T14:17:16.276Z,22.75
2019-05-28T14:19:46.487Z,23.13
2019-05-28T14:22:33.015Z,19.12
2019-05-28T14:24:49.543Z,17.57
2019-05-28T14:27:20.895Z,19.40
2019-05-28T14:29:56.603Z,19.33
2019-05-28T14:32:25.992Z,18.73
2019-05-28T14:34:56.429Z,17.33
2019-05-28T14:37:26.528Z,18.50
2019-05-28T14:39:58.689Z,17.50
2019-05-28T14:42:31.819Z,29.33
2019-05-28T14:45:02.195Z,18.20
2019-05-28T14:47:33.594Z,73.80
2019-05-28T14:50:07.398Z,18.90
2019-05-28T14:52:43.264Z,22.97
2019-05-28T14:55:13.562Z,24.07
2019-05-28T14:57:44.229Z,22.30
2019-05-28T15:00:18.803Z,20.83
2019-05-28T15:02:49.515Z,24.05
2019-05-28T15:05:25.115Z,22.77
2019-05-28T15:07:55.193Z,24.73
2019-05-28T15:10:26.694Z,25.13
2019-05-28T15:13:01.030Z,21.30
2019-05-28T15:15:36.222Z,22.50
2019-05-28T15:18:11.417Z,21.00
2019-05-28T15:20:41.692Z,22.63
2019-05-28T15:23:11.776Z,26.90
2019-05-28T15:25:41.200Z,30.40
2019-05-28T15:28:17.143Z,24.67
2019-05-28T15:30:52.216Z,26.37
2019-05-28T15:33:29.229Z,27.10
2019-05-28T15:36:03.503Z,28.20
2019-05-28T15:38:36.656Z,24.63
2019-05-28T15:41:11.048Z,22.98
2019-05-28T15:43:40.438Z,25.17
2019-05-28T15:46:16.826Z,21.97
2019-05-28T15:48:48.811Z,23.47
2019-05-28T15:51:19.746Z,27.77
2019-05-28T15:53:50.683Z,23.95
2019-05-28T15:56:21.454Z,21.85
2019-05-28T15:58:53.196Z,22.90
2019-05-28T16:01:23.393Z,22.00
2019-05-28T16:03:56.401Z,28.30
2019-05-28T16:06:33.531Z,21.93
2019-05-28T16:09:06.209Z,18.60
2019-05-28T16:11:38.320Z,23.20
2019-05-28T16:14:08.947Z,21.43
2019-05-28T16:16:43.295Z,19.37
2019-05-28T16:19:14.717Z,23.07
2019-05-28T16:21:44.089Z,19.57
2019-05-28T16:24:14.824Z,18.70
2019-05-28T16:26:44.341Z,17.90
2019-05-28T16:29:15.079Z,20.07
2019-05-28T16:31:46.707Z,17.27
2019-05-28T16:34:19.447Z,20.80
2019-05-28T16:36:51.026Z,20.67
2019-05-28T16:39:20.718Z,19.97
2019-05-28T16:41:52.492Z,20.00
2019-05-28T16:44:24.631Z,19.45
2019-05-28T16:47:16.081Z,26.17
2019-05-28T16:49:33.223Z,21.80
2019-05-28T16:52:09.275Z,25.47
2019-05-28T16:54:39.920Z,18.03
2019-05-28T16:57:09.361Z,30.10
2019-05-28T16:59:40.023Z,17.43
2019-05-28T17:02:09.572Z,18.00
2019-05-28T17:04:39.012Z,19.77
2019-05-28T17:07:09.513Z,29.17
2019-05-28T17:09:40.228Z,19.27
2019-05-28T17:12:10.106Z,21.20
2019-05-28T17:14:39.638Z,18.90
2019-05-28T17:17:09.800Z,17.62
2019-05-28T17:19:39.241Z,17.07
2019-05-28T17:22:10.387Z,18.73
2019-05-28T17:24:39.853Z,19.87
2019-05-28T17:27:09.755Z,21.30
2019-05-28T17:29:39.893Z,16.50
2019-05-28T17:32:09.964Z,18.80
2019-05-28T17:34:39.401Z,20.83
2019-05-28T17:37:09.092Z,19.70
2019-05-28T17:39:40.730Z,18.03
2019-05-28T17:42:10.156Z,20.72
2019-05-28T17:44:39.586Z,18.53
2019-05-28T17:47:09.053Z,21.17
2019-05-28T17:49:38.641Z,21.07
2019-05-28T17:52:08.127Z,22.83
2019-05-28T17:54:37.616Z,22.77
2019-05-28T17:57:15.528Z,22.80
2019-05-28T17:59:44.987Z,23.40
2019-05-28T18:02:15.789Z,23.10
2019-05-28T18:04:45.398Z,20.02
2019-05-28T18:07:16.324Z,20.45
2019-05-28T18:09:46.073Z,17.70
2019-05-28T18:12:17.196Z,17.60
2019-05-28T18:14:46.633Z,16.57
2019-05-28T18:17:24.882Z,20.12
2019-05-28T18:20:00.125Z,19.13
2019-05-28T18:22:32.922Z,20.07
2019-05-28T18:25:04.221Z,18.63
2019-05-28T18:27:39.147Z,18.02
2019-05-28T18:30:10.547Z,17.33
2019-05-28T18:32:41.654Z,18.43
2019-05-28T18:35:12.022Z,20.20
2019-05-28T18:37:41.544Z,22.87
2019-05-28T18:40:15.800Z,21.37
2019-05-28T18:42:45.169Z,19.57
2019-05-28T18:45:18.591Z,23.73
2019-05-28T18:47:50.581Z,22.60
2019-05-28T18:50:20.006Z,24.23
2019-05-28T18:52:50.423Z,25.53
2019-05-28T18:55:23.465Z,22.83
2019-05-28T18:57:52.078Z,23.65
2019-05-28T19:00:21.828Z,21.70
2019-05-28T19:02:51.566Z,21.03
2019-05-28T19:05:21.128Z,22.33
2019-05-28T19:07:50.608Z,21.10
2019-05-28T19:10:21.696Z,21.35
2019-05-28T19:12:54.430Z,22.33
2019-05-28T19:15:23.943Z,22.63
2019-05-28T19:17:54.066Z,21.80
2019-05-28T19:20:23.802Z,20.92
2019-05-28T19:22:54.019Z,20.10
2019-05-28T19:25:23.839Z,20.50
2019-05-28T19:27:53.975Z,22.50
2019-05-28T19:30:33.736Z,19.43
2019-05-28T19:33:06.344Z,18.55
2019-05-28T19:35:36.117Z,18.40
2019-05-28T19:38:11.685Z,17.80
2019-05-28T19:40:44.800Z,17.97
2019-05-28T19:43:19.013Z,18.50
2019-05-28T19:45:48.624Z,20.70
2019-05-28T19:48:19.099Z,19.48
2019-05-28T19:50:49.188Z,21.53
2019-05-28T19:53:18.984Z,21.83
2019-05-28T19:55:48.440Z,24.83
2019-05-28T19:58:18.221Z,22.33
2019-05-28T20:00:47.741Z,18.27
2019-05-28T20:03:18.892Z,18.92
2019-05-28T20:05:48.325Z,19.40
2019-05-28T20:08:19.800Z,18.82
2019-05-28T20:10:50.762Z,20.00
2019-05-28T20:13:21.089Z,19.80
2019-05-28T20:15:50.484Z,22.70
2019-05-28T20:18:26.587Z,20.93
2019-05-28T20:20:51.663Z,18.97
2019-05-28T20:23:22.644Z,20.57
2019-05-28T20:25:54.434Z,19.30
2019-05-28T20:28:25.757Z,19.70
2019-05-28T20:30:55.365Z,17.57
2019-05-28T20:33:25.121Z,19.43
2019-05-28T20:35:57.041Z,21.10
2019-05-28T20:38:27.877Z,18.47
2019-05-28T20:40:58.390Z,18.07
2019-05-28T20:43:28.328Z,18.23
2019-05-28T20:45:58.245Z,17.50
2019-05-28T20:48:28.291Z,20.10
2019-05-28T20:51:08.801Z,20.50
2019-05-28T20:53:36.377Z,17.90
2019-05-28T20:56:07.637Z,20.37
2019-05-28T20:58:40.541Z,19.40
2019-05-28T21:01:08.821Z,18.10
2019-05-28T21:03:39.177Z,17.82
2019-05-28T21:06:10.220Z,18.30
2019-05-28T21:08:42.069Z,20.13
2019-05-28T21:11:12.498Z,20.10
2019-05-28T21:13:43.233Z,22.10
2019-05-28T21:16:12.681Z,21.60
2019-05-28T21:18:42.681Z,22.53
2019-05-28T21:21:14.104Z,20.30
2019-05-28T21:23:43.744Z,20.17
2019-05-28T21:26:13.618Z,18.42
2019-05-28T21:28:43.883Z,19.87
2019-05-28T21:31:13.265Z,20.17
2019-05-28T21:33:50.707Z,21.50
2019-05-28T21:36:25.388Z,21.57
2019-05-28T21:38:57.410Z,22.77
2019-05-28T21:41:28.637Z,22.27
2019-05-28T21:44:00.090Z,22.40
2019-05-28T21:46:36.465Z,25.03
2019-05-28T21:49:07.558Z,27.03
2019-05-28T21:51:36.956Z,29.37
2019-05-28T21:54:12.893Z,25.67
2019-05-28T21:56:46.617Z,19.77
2019-05-28T21:59:21.265Z,23.00
2019-05-28T22:01:52.113Z,21.03
2019-05-28T22:04:23.192Z,24.80
2019-05-28T22:06:52.592Z,27.43
2019-05-28T22:09:24.819Z,26.90
2019-05-28T22:11:55.466Z,25.20
2019-05-28T22:14:28.628Z,21.90
2019-05-28T22:16:59.397Z,21.30
2019-05-28T22:19:39.354Z,21.57
2019-05-28T22:22:11.354Z,21.77
2019-05-28T22:24:41.170Z,19.53
2019-05-28T22:27:10.938Z,19.50
2019-05-28T22:29:41.784Z,19.90
2019-05-28T22:32:11.539Z,21.52
2019-05-28T22:34:41.293Z,21.90
2019-05-28T22:37:10.731Z,21.60
2019-05-28T22:39:41.660Z,20.50
2019-05-28T22:42:14.347Z,21.23
2019-05-28T22:44:44.220Z,20.10
2019-05-28T22:47:14.881Z,21.27
2019-05-28T22:49:44.305Z,23.00
2019-05-28T22:52:15.827Z,20.93
2019-05-28T22:54:45.229Z,23.30
2019-05-28T22:57:16.025Z,24.90
2019-05-28T22:59:45.498Z,24.13
2019-05-28T23:02:17.251Z,25.10
2019-05-28T23:04:47.017Z,23.80
2019-05-28T23:07:19.493Z,26.07
2019-05-28T23:09:49.555Z,27.10
2019-05-28T23:12:19.522Z,21.63
2019-05-28T23:14:50.968Z,22.57
2019-05-28T23:17:20.340Z,24.13
2019-05-28T23:19:49.757Z,24.50
2019-05-28T23:22:20.140Z,26.07
2019-05-28T23:24:49.921Z,28.40
2019-05-28T23:27:24.886Z,26.97
2019-05-28T23:29:54.325Z,27.97
2019-05-28T23:32:25.610Z,31.07
2019-05-28T23:34:56.390Z,27.87
2019-05-28T23:37:32.769Z,26.00
2019-05-28T23:40:03.118Z,23.75
2019-05-28T23:42:33.324Z,25.90
2019-05-28T23:45:03.928Z,23.57
2019-05-28T23:47:33.584Z,25.70
2019-05-28T23:50:04.361Z,25.60
2019-05-28T23:52:33.708Z,25.07
2019-05-28T23:55:03.112Z,24.12
2019-05-28T23:57:33.677Z,23.90
